Time;durP1;ratioP1;P1;durP2;ratioP2;P2;SDS_P1;SDS_P2;PMS_P1;PMS_P2;Temp;Humidity;BMP_temperature;BMP_pressure;BME280_temperature;BME280_humidity;BME280_pressure;Samples;Min_cycle;Max_cycle;Signal;HPM_P1;HPM_P2
2022/03/12 00:00:31;;;;;;;2.30;2.00;;;17.50;56.70;;;;;;5204273;28;20297;-67
2022/03/12 00:03:25;;;;;;;2.67;1.70;;;17.40;56.60;;;;;;5207034;28;20662;-68
2022/03/12 00:06:18;;;;;;;2.07;1.70;;;17.40;56.70;;;;;;5208746;28;20577;-67
2022/03/12 00:09:10;;;;;;;3.37;1.93;;;17.40;56.60;;;;;;5212090;28;20198;-67
2022/03/12 00:12:03;;;;;;;2.10;1.67;;;17.40;56.70;;;;;;5206902;28;20239;-68
2022/03/12 00:14:55;;;;;;;2.10;1.63;;;17.40;56.50;;;;;;5208322;28;20198;-67
2022/03/12 00:17:48;;;;;;;2.03;1.80;;;17.40;56.60;;;;;;5207617;28;20365;-67
2022/03/12 00:20:48;;;;;;;1.73;1.30;;;17.50;56.70;;;;;;5208297;28;20220;-67
2022/03/12 00:23:41;;;;;;;1.90;1.60;;;17.40;56.60;;;;;;5207685;28;20182;-67
2022/03/12 00:26:40;;;;;;;2.47;1.80;;;17.40;56.70;;;;;;5208135;28;20783;-67
2022/03/12 00:29:32;;;;;;;1.93;1.73;;;17.40;56.60;;;;;;5206534;28;20194;-67
2022/03/12 00:32:24;;;;;;;2.53;1.80;;;17.40;56.60;;;;;;5207102;28;20201;-67
2022/03/12 00:35:17;;;;;;;2.03;1.53;;;17.40;56.60;;;;;;5206688;28;20201;-67
2022/03/12 00:38:10;;;;;;;1.90;1.63;;;17.40;56.50;;;;;;5198135;28;20232;-67
2022/03/12 00:41:04;;;;;;;1.77;1.33;;;17.40;56.60;;;;;;5207735;28;20292;-67
2022/03/12 00:43:56;;;;;;;3.17;1.97;;;17.40;56.60;;;;;;5207759;28;20206;-67
2022/03/12 00:46:48;;;;;;;2.20;1.60;;;17.40;56.50;;;;;;5207831;28;20190;-68
2022/03/12 00:49:41;;;;;;;1.87;1.67;;;17.40;56.60;;;;;;5207357;28;20272;-67
2022/03/12 00:52:33;;;;;;;2.77;1.67;;;17.50;56.60;;;;;;5207389;28;20308;-67
2022/03/12 00:55:27;;;;;;;2.17;1.60;;;17.50;56.60;;;;;;5207459;28;20193;-66
2022/03/12 00:58:19;;;;;;;1.83;1.50;;;17.40;56.50;;;;;;5207364;28;20272;-67
2022/03/12 01:01:11;;;;;;;2.30;1.80;;;17.40;56.60;;;;;;5206951;28;20214;-67
2022/03/12 01:04:04;;;;;;;2.67;2.17;;;17.40;56.50;;;;;;5206940;28;20676;-67
2022/03/12 01:06:56;;;;;;;2.37;1.73;;;17.40;56.50;;;;;;5207580;28;20224;-68
2022/03/12 01:09:48;;;;;;;1.53;1.33;;;17.40;56.50;;;;;;5206480;28;20202;-67
2022/03/12 01:12:43;;;;;;;2.47;1.87;;;17.40;56.50;;;;;;5206624;28;20182;-67
2022/03/12 01:15:35;;;;;;;3.23;1.83;;;17.40;56.50;;;;;;5206540;28;20198;-67
2022/03/12 01:18:28;;;;;;;3.30;1.47;;;17.40;56.50;;;;;;5206081;28;20209;-67
2022/03/12 01:21:20;;;;;;;2.03;1.57;;;17.40;56.40;;;;;;5206185;28;20275;-67
2022/03/12 01:24:12;;;;;;;2.53;1.80;;;17.40;56.40;;;;;;5206445;28;20197;-67
2022/03/12 01:27:05;;;;;;;2.40;1.87;;;17.40;56.50;;;;;;5206259;28;20198;-68
2022/03/12 01:29:58;;;;;;;2.03;1.57;;;17.40;56.40;;;;;;5206660;28;20336;-67
2022/03/12 01:32:51;;;;;;;2.17;1.70;;;17.40;56.50;;;;;;5206581;28;20352;-68
2022/03/12 01:35:43;;;;;;;2.50;1.50;;;17.40;56.50;;;;;;5213421;28;20225;-67
2022/03/12 01:38:36;;;;;;;2.03;1.60;;;17.40;56.40;;;;;;5206807;28;20737;-67
2022/03/12 01:41:30;;;;;;;1.73;1.57;;;17.40;56.30;;;;;;5184822;28;20265;-67
2022/03/12 01:44:23;;;;;;;1.77;1.60;;;17.40;56.40;;;;;;5185780;28;20203;-67
2022/03/12 01:47:19;;;;;;;1.90;1.70;;;17.40;56.40;;;;;;5186950;28;20198;-67
2022/03/12 01:50:11;;;;;;;1.97;1.70;;;17.40;56.30;;;;;;5193427;28;20221;-67
2022/03/12 01:53:05;;;;;;;2.80;2.00;;;17.40;56.40;;;;;;5205662;28;20265;-67
2022/03/12 01:55:57;;;;;;;1.93;1.63;;;17.40;56.40;;;;;;5205801;28;20255;-68
2022/03/12 01:58:50;;;;;;;2.77;1.60;;;17.40;56.30;;;;;;5206025;28;20276;-68
2022/03/12 02:01:42;;;;;;;2.00;1.53;;;17.40;56.30;;;;;;5211878;28;20351;-68
2022/03/12 02:04:38;;;;;;;1.57;1.43;;;17.40;56.30;;;;;;5205504;28;20568;-67
2022/03/12 02:07:30;;;;;;;2.00;1.80;;;17.40;56.30;;;;;;5205381;28;20592;-67
2022/03/12 02:10:22;;;;;;;2.20;1.70;;;17.40;56.30;;;;;;5213862;28;20222;-67
2022/03/12 02:13:16;;;;;;;2.53;1.83;;;17.40;56.30;;;;;;5205470;28;20327;-67
2022/03/12 02:16:10;;;;;;;2.70;1.60;;;17.40;56.30;;;;;;5205090;28;20201;-67
2022/03/12 02:19:03;;;;;;;2.63;1.77;;;17.40;56.40;;;;;;5205454;28;20660;-67
2022/03/12 02:21:59;;;;;;;2.10;1.80;;;17.40;56.30;;;;;;5204398;28;20268;-67
2022/03/12 02:24:53;;;;;;;2.03;1.70;;;17.40;56.30;;;;;;5205019;28;20292;-67
2022/03/12 02:27:45;;;;;;;2.00;1.70;;;17.40;56.30;;;;;;5204942;28;20273;-67
2022/03/12 02:30:41;;;;;;;2.53;1.80;;;17.40;56.30;;;;;;5204380;28;20340;-67
2022/03/12 02:33:33;;;;;;;1.83;1.60;;;17.40;56.20;;;;;;5204216;28;20196;-67
2022/03/12 02:36:27;;;;;;;1.53;1.43;;;17.40;56.30;;;;;;5199377;28;20197;-67
2022/03/12 02:39:21;;;;;;;1.90;1.60;;;17.40;56.30;;;;;;5205566;28;20253;-67
2022/03/12 02:42:14;;;;;;;2.30;1.60;;;17.40;56.30;;;;;;5204911;28;20730;-67
2022/03/12 02:45:09;;;;;;;2.37;1.70;;;17.40;56.30;;;;;;5205172;28;20658;-67
2022/03/12 02:48:01;;;;;;;1.90;1.63;;;17.40;56.30;;;;;;5205661;28;20264;-68
2022/03/12 02:50:54;;;;;;;1.80;1.53;;;17.40;56.20;;;;;;5205241;28;20288;-67
2022/03/12 02:53:46;;;;;;;1.87;1.47;;;17.40;56.20;;;;;;5205226;28;20193;-67
2022/03/12 02:56:38;;;;;;;1.97;1.63;;;17.40;56.00;;;;;;5205095;28;20205;-67
2022/03/12 02:59:33;;;;;;;2.20;1.60;;;17.40;56.20;;;;;;5204547;28;20229;-67
2022/03/12 03:02:35;;;;;;;2.00;1.70;;;17.40;56.20;;;;;;5204307;28;20190;-67
2022/03/12 03:05:36;;;;;;;2.53;1.63;;;17.40;56.10;;;;;;5205380;28;20241;-67
2022/03/12 03:08:29;;;;;;;2.10;1.60;;;17.40;56.10;;;;;;5204058;28;20194;-67
2022/03/12 03:11:21;;;;;;;1.70;1.50;;;17.40;56.00;;;;;;5204786;28;20245;-67
2022/03/12 03:14:15;;;;;;;1.90;1.57;;;17.40;56.20;;;;;;5204946;28;20236;-67
2022/03/12 03:17:12;;;;;;;1.83;1.70;;;17.40;56.10;;;;;;5204442;28;20209;-67
2022/03/12 03:20:05;;;;;;;2.20;1.80;;;17.40;56.00;;;;;;5204844;28;20590;-67
2022/03/12 03:22:57;;;;;;;1.90;1.60;;;17.40;56.10;;;;;;5205174;28;20278;-67
2022/03/12 03:25:49;;;;;;;2.10;1.90;;;17.40;56.20;;;;;;5204751;28;20201;-67
2022/03/12 03:28:42;;;;;;;2.07;1.73;;;17.40;56.10;;;;;;5204748;28;20328;-67
2022/03/12 03:31:35;;;;;;;2.13;1.60;;;17.40;56.00;;;;;;5203853;28;20255;-66
2022/03/12 03:34:30;;;;;;;2.67;1.70;;;17.40;56.00;;;;;;5205168;28;20272;-67
2022/03/12 03:37:22;;;;;;;2.23;1.70;;;17.40;56.10;;;;;;5204981;28;20209;-67
2022/03/12 03:40:14;;;;;;;2.27;1.80;;;17.40;56.00;;;;;;5204972;28;20657;-67
2022/03/12 03:43:12;;;;;;;1.63;1.20;;;17.40;56.00;;;;;;5204259;28;20743;-67
2022/03/12 03:46:04;;;;;;;2.00;1.47;;;17.40;56.00;;;;;;5204939;28;20217;-67
2022/03/12 03:48:57;;;;;;;2.00;1.67;;;17.30;55.90;;;;;;5184766;28;20194;-67
2022/03/12 03:51:50;;;;;;;2.70;1.80;;;17.40;56.00;;;;;;5183689;28;20222;-67
2022/03/12 03:54:42;;;;;;;2.10;1.60;;;17.30;55.90;;;;;;5182823;28;20198;-67
2022/03/12 03:57:35;;;;;;;2.03;1.63;;;17.40;55.90;;;;;;5187403;28;20205;-68
2022/03/12 04:00:28;;;;;;;2.37;1.90;;;17.40;55.90;;;;;;5203544;28;20293;-67
2022/03/12 04:03:20;;;;;;;1.73;1.27;;;17.40;55.90;;;;;;5203751;28;20304;-67
2022/03/12 04:06:12;;;;;;;1.77;1.60;;;17.30;56.50;;;;;;5203929;28;20197;-67
2022/03/12 04:09:06;;;;;;;2.03;1.77;;;17.40;55.90;;;;;;5198473;28;20281;-67
2022/03/12 04:11:58;;;;;;;2.27;1.77;;;17.40;55.90;;;;;;5204409;28;20232;-67
2022/03/12 04:14:50;;;;;;;1.93;1.73;;;17.30;55.80;;;;;;5207681;28;20196;-67
2022/03/12 04:17:43;;;;;;;1.87;1.70;;;17.40;55.90;;;;;;5207175;28;20190;-67
2022/03/12 04:20:36;;;;;;;2.27;1.67;;;17.40;55.80;;;;;;5207252;28;20708;-67
2022/03/12 04:23:28;;;;;;;1.63;1.27;;;17.40;55.70;;;;;;5206286;28;20577;-67
2022/03/12 04:26:21;;;;;;;1.80;1.67;;;17.30;55.70;;;;;;5206833;28;20285;-67
2022/03/12 04:29:14;;;;;;;2.07;1.87;;;17.30;55.70;;;;;;5208233;28;20197;-67
2022/03/12 04:32:10;;;;;;;2.17;1.83;;;17.40;55.70;;;;;;5207275;28;20217;-67
2022/03/12 04:35:02;;;;;;;1.73;1.63;;;17.30;55.70;;;;;;5208044;28;20205;-67
2022/03/12 04:37:54;;;;;;;2.23;2.00;;;17.40;55.80;;;;;;5206857;28;20194;-67
2022/03/12 04:40:47;;;;;;;2.30;1.43;;;17.40;55.80;;;;;;5207933;28;20300;-67
2022/03/12 04:43:41;;;;;;;2.37;1.63;;;17.40;55.70;;;;;;5207781;28;20202;-67
2022/03/12 04:46:34;;;;;;;1.80;1.70;;;17.40;55.80;;;;;;5207662;28;20573;-67
2022/03/12 04:49:26;;;;;;;1.83;1.53;;;17.40;55.70;;;;;;5206684;28;20247;-67
2022/03/12 04:52:20;;;;;;;1.53;1.40;;;17.40;55.70;;;;;;5207582;28;20291;-67
2022/03/12 04:55:15;;;;;;;2.73;1.73;;;17.40;55.60;;;;;;5207689;28;20247;-67
2022/03/12 04:58:09;;;;;;;1.80;1.43;;;17.30;55.70;;;;;;5207730;28;20259;-67
2022/03/12 05:01:04;;;;;;;1.40;1.20;;;17.40;55.70;;;;;;5207447;28;20221;-67
2022/03/12 05:03:56;;;;;;;1.83;1.50;;;17.30;55.70;;;;;;5207596;28;20561;-67
2022/03/12 05:06:48;;;;;;;1.53;1.37;;;17.30;55.70;;;;;;5206290;28;20201;-67
2022/03/12 05:09:40;;;;;;;1.80;1.40;;;17.30;55.70;;;;;;5206145;28;20276;-67
2022/03/12 05:12:33;;;;;;;1.70;1.53;;;17.40;55.80;;;;;;5206796;28;20348;-67
2022/03/12 05:15:25;;;;;;;2.30;1.63;;;17.40;55.70;;;;;;5201083;28;20569;-67
2022/03/12 05:18:21;;;;;;;2.30;1.93;;;17.30;56.30;;;;;;5185019;28;20274;-66
2022/03/12 05:21:13;;;;;;;2.43;1.73;;;17.30;55.60;;;;;;5186295;28;20222;-67
2022/03/12 05:24:06;;;;;;;2.40;1.70;;;17.30;55.60;;;;;;5187245;28;20324;-67
2022/03/12 05:26:59;;;;;;;1.77;1.33;;;17.30;55.60;;;;;;5186583;28;20202;-67
2022/03/12 05:29:52;;;;;;;2.50;1.67;;;17.40;55.60;;;;;;5186059;28;20198;-67
2022/03/12 05:32:45;;;;;;;1.83;1.50;;;17.40;55.60;;;;;;5186082;28;20215;-67
2022/03/12 05:35:41;;;;;;;2.13;1.60;;;17.40;55.60;;;;;;5186485;28;20281;-68
2022/03/12 05:38:36;;;;;;;1.50;1.27;;;17.40;55.50;;;;;;5199718;28;20699;-67
2022/03/12 05:41:29;;;;;;;2.03;1.60;;;17.40;55.60;;;;;;5206470;28;20221;-67
2022/03/12 05:44:24;;;;;;;2.10;1.70;;;17.40;55.60;;;;;;5206332;28;20205;-67
2022/03/12 05:47:17;;;;;;;1.90;1.67;;;17.40;55.50;;;;;;5207076;28;20202;-67
2022/03/12 05:50:12;;;;;;;1.57;1.40;;;17.40;55.50;;;;;;5193733;28;20210;-67
2022/03/12 05:53:10;;;;;;;2.80;1.50;;;17.40;55.50;;;;;;5206361;28;20217;-67
2022/03/12 05:56:04;;;;;;;1.73;1.40;;;17.40;55.50;;;;;;5206511;28;20198;-67
2022/03/12 05:58:56;;;;;;;2.30;1.77;;;17.40;55.50;;;;;;5206211;28;20205;-67
2022/03/12 06:01:50;;;;;;;1.97;1.67;;;17.40;55.50;;;;;;5208220;28;20206;-67
2022/03/12 06:04:42;;;;;;;2.50;1.97;;;17.40;55.50;;;;;;5204880;28;20696;-67
2022/03/12 06:07:35;;;;;;;2.67;1.50;;;17.40;55.50;;;;;;5205820;28;20573;-67
2022/03/12 06:10:31;;;;;;;2.27;1.70;;;17.40;55.50;;;;;;5206113;28;20241;-67
2022/03/12 06:13:25;;;;;;;1.50;1.40;;;17.40;55.50;;;;;;5205268;28;20206;-67
2022/03/12 06:16:17;;;;;;;1.67;1.50;;;17.40;55.50;;;;;;5204159;28;20681;-67
2022/03/12 06:19:09;;;;;;;2.37;1.80;;;17.40;55.60;;;;;;5205484;28;20229;-67
2022/03/12 06:22:02;;;;;;;2.43;1.83;;;17.40;55.50;;;;;;5277052;22;20300;-70
2022/03/12 06:24:54;;;;;;;1.80;1.50;;;17.40;55.60;;;;;;5238327;28;20197;-70
2022/03/12 06:27:52;;;;;;;1.93;1.30;;;17.40;55.50;;;;;;5246843;28;20322;-70
2022/03/12 06:30:44;;;;;;;2.77;1.70;;;17.40;55.50;;;;;;5246457;28;20216;-70
2022/03/12 06:33:37;;;;;;;1.97;1.40;;;17.40;55.50;;;;;;5245826;28;20220;-70
2022/03/12 06:36:29;;;;;;;1.93;1.50;;;17.40;55.50;;;;;;5235102;28;20545;-69
2022/03/12 06:39:21;;;;;;;1.97;1.70;;;17.40;55.60;;;;;;5217622;28;20201;-70
2022/03/12 06:42:13;;;;;;;1.87;1.30;;;17.40;55.50;;;;;;5226108;28;20347;-70
2022/03/12 06:45:08;;;;;;;1.70;1.60;;;17.40;55.50;;;;;;5229421;28;20246;-70
2022/03/12 06:48:01;;;;;;;1.97;1.63;;;17.40;55.60;;;;;;5224986;28;20197;-70
2022/03/12 06:50:54;;;;;;;1.83;1.50;;;17.40;55.50;;;;;;5233464;28;20226;-70
2022/03/12 06:53:46;;;;;;;2.70;1.60;;;17.40;55.60;;;;;;5237307;28;20797;-70
2022/03/12 06:56:39;;;;;;;2.47;1.60;;;17.40;55.60;;;;;;5245975;28;20722;-70
2022/03/12 06:59:32;;;;;;;2.30;1.60;;;17.40;55.60;;;;;;5235901;28;20193;-70
2022/03/12 07:02:25;;;;;;;1.77;1.50;;;17.40;55.60;;;;;;5225209;28;20271;-70
2022/03/12 07:05:18;;;;;;;1.87;1.47;;;17.40;55.60;;;;;;5224866;28;20481;-70
2022/03/12 07:08:10;;;;;;;1.57;1.47;;;17.40;55.50;;;;;;5204657;28;20318;-70
2022/03/12 07:11:02;;;;;;;2.13;1.60;;;17.40;55.60;;;;;;5204194;28;20270;-70
2022/03/12 07:13:55;;;;;;;1.70;1.50;;;17.40;55.50;;;;;;5205666;28;20355;-70
2022/03/12 07:16:47;;;;;;;1.70;1.47;;;17.40;55.50;;;;;;5225882;28;20676;-70
2022/03/12 07:19:41;;;;;;;2.07;1.60;;;17.40;55.60;;;;;;5225321;28;20189;-70
2022/03/12 07:22:33;;;;;;;2.27;1.83;;;17.40;55.40;;;;;;5232786;28;20814;-69
2022/03/12 07:25:26;;;;;;;1.53;1.43;;;17.40;55.40;;;;;;5204756;28;20637;-69
2022/03/12 07:28:19;;;;;;;1.83;1.70;;;17.40;55.40;;;;;;5205201;28;20197;-69
2022/03/12 07:31:12;;;;;;;3.73;1.53;;;17.40;55.60;;;;;;5204171;28;20210;-70
2022/03/12 07:34:04;;;;;;;3.70;1.70;;;17.40;55.60;;;;;;5206137;28;20213;-70
2022/03/12 07:36:57;;;;;;;2.10;1.53;;;17.40;55.60;;;;;;5205236;28;20240;-69
2022/03/12 07:39:50;;;;;;;2.53;1.53;;;17.40;55.60;;;;;;5208836;28;20246;-70
2022/03/12 07:42:43;;;;;;;1.70;1.37;;;17.40;55.60;;;;;;5225332;28;20193;-70
2022/03/12 07:45:35;;;;;;;1.50;1.40;;;17.40;55.60;;;;;;5229357;28;20695;-69
2022/03/12 07:48:28;;;;;;;1.73;1.50;;;17.40;55.50;;;;;;5238536;28;20692;-69
2022/03/12 07:51:20;;;;;;;2.23;1.77;;;17.40;55.60;;;;;;5246549;28;20213;-69
2022/03/12 07:54:15;;;;;;;2.07;1.40;;;17.40;55.60;;;;;;5249324;28;20754;-70
2022/03/12 07:57:07;;;;;;;2.37;1.50;;;17.40;55.60;;;;;;5244168;28;20201;-69
2022/03/12 07:59:59;;;;;;;1.80;1.50;;;17.40;55.70;;;;;;5236517;28;20196;-70
2022/03/12 08:02:51;;;;;;;3.63;1.33;;;17.40;55.50;;;;;;5249252;28;20257;-70
2022/03/12 08:05:43;;;;;;;1.97;1.50;;;17.40;55.60;;;;;;5212622;28;20568;-69
2022/03/12 08:08:36;;;;;;;1.40;1.10;;;17.40;56.10;;;;;;5208151;28;20741;-69
2022/03/12 08:11:32;;;;;;;2.53;1.83;;;17.40;55.50;;;;;;5207131;28;20332;-68
2022/03/12 08:14:24;;;;;;;4.57;1.67;;;17.40;55.70;;;;;;5208396;28;20307;-68
2022/03/12 08:17:17;;;;;;;11.05;2.72;;;17.40;55.90;;;;;;5205455;28;20526;-71
2022/03/12 08:20:10;;;;;;;7.53;2.83;;;17.50;55.70;;;;;;5227672;28;20225;-71
2022/03/12 08:23:03;;;;;;;6.00;2.53;;;17.50;55.60;;;;;;5227503;28;20233;-70
2022/03/12 08:25:55;;;;;;;5.67;2.63;;;17.50;55.70;;;;;;5228426;28;20232;-70
2022/03/12 08:28:48;;;;;;;4.37;3.03;;;17.50;55.10;;;;;;5228417;28;20392;-70
2022/03/12 08:31:42;;;;;;;6.40;2.80;;;17.50;55.00;;;;;;5218982;28;20727;-70
2022/03/12 08:34:34;;;;;;;4.23;2.30;;;17.40;54.90;;;;;;5227548;28;20318;-70
2022/03/12 08:37:26;;;;;;;6.03;2.80;;;17.40;54.90;;;;;;5228092;28;20706;-69
2022/03/12 08:40:18;;;;;;;3.67;2.30;;;17.40;55.10;;;;;;5227941;28;20761;-69
2022/03/12 08:43:11;;;;;;;4.47;2.13;;;17.40;55.10;;;;;;5230226;28;20185;-69
2022/03/12 08:46:07;;;;;;;4.43;2.63;;;17.30;55.30;;;;;;5239728;28;20228;-69
2022/03/12 08:48:59;;;;;;;4.27;2.60;;;17.30;55.10;;;;;;5248481;28;20201;-70
2022/03/12 08:51:51;;;;;;;5.40;2.40;;;17.30;55.20;;;;;;5209549;28;20252;-69
2022/03/12 08:54:43;;;;;;;3.07;2.63;;;17.30;55.70;;;;;;5215873;28;20253;-70
2022/03/12 08:57:35;;;;;;;4.63;2.77;;;17.30;55.00;;;;;;5216062;28;20335;-69
2022/03/12 09:00:27;;;;;;;4.83;3.10;;;17.30;51.50;;;;;;5227842;28;20290;-69
2022/03/12 09:03:22;;;;;;;3.57;2.77;;;17.30;46.80;;;;;;5226442;28;20219;-69
2022/03/12 09:06:14;;;;;;;6.47;3.10;;;17.20;42.80;;;;;;5227537;28;20201;-70
2022/03/12 09:09:06;;;;;;;3.63;2.73;;;17.20;41.90;;;;;;5223347;28;20233;-70
2022/03/12 09:11:59;;;;;;;4.77;2.63;;;17.20;42.00;;;;;;5206092;28;20280;-70
2022/03/12 09:14:51;;;;;;;3.57;2.97;;;17.20;39.60;;;;;;5207142;28;20752;-69
2022/03/12 09:17:43;;;;;;;4.20;2.77;;;17.20;35.90;;;;;;5206367;28;20229;-69
2022/03/12 09:20:45;;;;;;;4.87;2.87;;;17.10;37.40;;;;;;5207804;28;20260;-69
2022/03/12 09:23:37;;;;;;;3.33;2.30;;;17.10;39.30;;;;;;5226574;28;20193;-69
2022/03/12 09:26:30;;;;;;;3.53;2.67;;;17.10;40.40;;;;;;5227002;28;20615;-70
2022/03/12 09:29:22;;;;;;;2.87;2.40;;;17.10;41.50;;;;;;5227290;28;20630;-69
2022/03/12 09:32:15;;;;;;;2.57;2.30;;;17.20;42.50;;;;;;5226807;28;20221;-69
2022/03/12 09:35:08;;;;;;;2.57;2.23;;;17.20;43.30;;;;;;5224578;28;20263;-70
2022/03/12 09:38:03;;;;;;;2.97;2.20;;;17.20;43.90;;;;;;5227108;28;20319;-69
2022/03/12 09:40:55;;;;;;;3.60;2.30;;;17.20;44.60;;;;;;5225996;28;20217;-69
2022/03/12 09:43:47;;;;;;;2.60;2.20;;;17.20;45.10;;;;;;5226202;28;20271;-69
2022/03/12 09:46:40;;;;;;;3.50;2.20;;;17.30;45.50;;;;;;5225888;28;20679;-69
2022/03/12 09:49:33;;;;;;;2.30;1.80;;;17.30;46.00;;;;;;5227520;28;20282;-69
2022/03/12 09:52:25;;;;;;;1.77;1.60;;;17.30;46.40;;;;;;5233591;28;20216;-69
2022/03/12 09:55:19;;;;;;;2.40;1.80;;;17.30;46.80;;;;;;5224207;28;20204;-69
2022/03/12 09:58:12;;;;;;;2.63;1.63;;;17.30;47.10;;;;;;5224854;28;20197;-69
2022/03/12 10:01:04;;;;;;;2.30;1.80;;;17.30;47.40;;;;;;5224254;28;20209;-69
2022/03/12 10:03:56;;;;;;;3.13;1.60;;;17.30;47.50;;;;;;5235773;28;20274;-69
2022/03/12 10:06:48;;;;;;;2.97;1.73;;;17.30;47.80;;;;;;5215146;28;20200;-68
2022/03/12 10:09:41;;;;;;;2.50;1.70;;;17.30;47.70;;;;;;5220653;28;20197;-69
2022/03/12 10:12:35;;;;;;;2.60;1.80;;;17.30;48.10;;;;;;5225267;28;20604;-69
2022/03/12 10:15:27;;;;;;;2.73;1.73;;;17.30;48.20;;;;;;5224338;28;20707;-69
2022/03/12 10:18:20;;;;;;;3.80;2.00;;;17.20;48.50;;;;;;5227146;28;20197;-69
2022/03/12 10:21:13;;;;;;;2.17;1.57;;;17.20;48.70;;;;;;5205675;28;20229;-68
2022/03/12 10:24:07;;;;;;;1.70;1.30;;;17.20;48.90;;;;;;5206020;28;20681;-69
2022/03/12 10:27:00;;;;;;;3.43;1.50;;;17.20;48.90;;;;;;5205896;28;20204;-69
2022/03/12 10:29:53;;;;;;;1.97;1.60;;;17.20;49.00;;;;;;5226113;28;20548;-69
2022/03/12 10:32:48;;;;;;;2.13;1.73;;;17.20;49.30;;;;;;5219629;28;20846;-69
2022/03/12 10:35:40;;;;;;;3.13;1.47;;;17.20;49.40;;;;;;5224841;28;20537;-68
2022/03/12 10:38:38;;;;;;;2.37;1.60;;;17.20;49.20;;;;;;5224644;28;20193;-69
2022/03/12 10:41:31;;;;;;;2.50;1.90;;;17.20;49.50;;;;;;5225715;28;20220;-70
2022/03/12 10:44:33;;;;;;;1.80;1.40;;;17.20;49.50;;;;;;5225260;28;20201;-69
2022/03/12 10:47:26;;;;;;;1.60;1.40;;;17.20;49.80;;;;;;5224724;28;20258;-69
2022/03/12 10:50:21;;;;;;;1.97;1.70;;;17.20;49.80;;;;;;5230397;28;20196;-68
2022/03/12 10:53:15;;;;;;;1.73;1.33;;;17.20;50.00;;;;;;5204138;28;20209;-68
2022/03/12 10:56:08;;;;;;;2.93;1.53;;;17.10;49.90;;;;;;5203969;28;20275;-69
2022/03/12 10:59:00;;;;;;;2.00;1.80;;;17.10;50.10;;;;;;5204040;28;20204;-68
2022/03/12 11:01:54;;;;;;;1.77;1.30;;;17.10;50.10;;;;;;5216647;28;20254;-68
2022/03/12 11:04:48;;;;;;;1.80;1.50;;;17.20;50.50;;;;;;5225985;28;20323;-69
2022/03/12 11:07:41;;;;;;;1.80;1.60;;;17.10;50.50;;;;;;5225439;28;20676;-68
2022/03/12 11:10:37;;;;;;;1.47;1.30;;;17.20;50.50;;;;;;5225682;28;20254;-68
2022/03/12 11:13:38;;;;;;;4.53;1.50;;;17.10;50.70;;;;;;5226017;28;20223;-68
2022/03/12 11:16:32;;;;;;;2.23;1.60;;;17.10;50.60;;;;;;5204614;28;20205;-69
2022/03/12 11:19:39;;;;;;;2.07;1.40;;;17.20;50.80;;;;;;5204317;28;20200;-68
2022/03/12 11:22:33;;;;;;;1.77;1.33;;;17.20;50.80;;;;;;5210648;28;20304;-69
2022/03/12 11:25:25;;;;;;;1.60;1.20;;;17.10;50.70;;;;;;5223023;28;20189;-68
2022/03/12 11:28:19;;;;;;;3.53;1.50;;;17.20;50.90;;;;;;5228590;28;20280;-69
2022/03/12 11:31:15;;;;;;;2.00;1.40;;;17.10;51.00;;;;;;5228077;28;20221;-69
2022/03/12 11:34:24;;;;;;;2.07;1.30;;;17.20;51.10;;;;;;5227623;28;20210;-69
2022/03/12 11:37:18;;;;;;;2.13;1.60;;;17.20;51.00;;;;;;5220933;28;20665;-66
2022/03/12 11:40:18;;;;;;;1.67;1.33;;;17.10;51.30;;;;;;5214172;28;20193;-66
2022/03/12 11:43:24;;;;;;;1.73;1.47;;;17.20;51.60;;;;;;5204145;28;20649;-68
2022/03/12 11:46:16;;;;;;;2.07;1.50;;;17.20;51.60;;;;;;5225008;28;20580;-68
2022/03/12 11:49:09;;;;;;;2.83;1.50;;;17.20;50.90;;;;;;5235451;28;20193;-68
2022/03/12 11:52:01;;;;;;;2.03;1.43;;;17.30;50.50;;;;;;5227543;28;20582;-68
2022/03/12 11:54:55;;;;;;;1.57;1.33;;;17.20;51.00;;;;;;5208371;28;20715;-67
2022/03/12 11:57:49;;;;;;;1.43;1.33;;;17.20;51.10;;;;;;5219728;28;20205;-67
2022/03/12 12:00:46;;;;;;;1.70;1.27;;;17.20;51.40;;;;;;5221729;28;20619;-67
2022/03/12 12:03:38;;;;;;;1.90;1.63;;;17.30;51.40;;;;;;5208410;28;20193;-68
2022/03/12 12:06:30;;;;;;;1.77;1.40;;;17.30;51.60;;;;;;5207152;28;20258;-67
2022/03/12 12:09:22;;;;;;;1.60;1.50;;;17.30;51.40;;;;;;5208404;28;20251;-67
2022/03/12 12:12:14;;;;;;;1.90;1.40;;;17.30;51.50;;;;;;5215699;28;20279;-67
2022/03/12 12:15:19;;;;;;;1.60;1.40;;;17.30;51.60;;;;;;5215443;28;20221;-67
2022/03/12 12:18:12;;;;;;;2.33;1.30;;;17.30;51.60;;;;;;5227786;28;20197;-67
2022/03/12 12:21:04;;;;;;;1.70;1.40;;;17.30;51.70;;;;;;5230134;28;20738;-67
2022/03/12 12:26:29;;;;;;;1.37;1.27;;;17.30;51.70;;;;;;5256653;22;20237;-68
2022/03/12 12:29:42;;;;;;;1.97;1.43;;;17.30;51.70;;;;;;5231346;28;20224;-68
2022/03/12 12:32:45;;;;;;;3.00;1.23;;;17.30;51.80;;;;;;5221235;28;20204;-68
2022/03/12 12:35:38;;;;;;;2.90;1.40;;;17.30;51.80;;;;;;5224091;28;20576;-68
2022/03/12 12:38:30;;;;;;;3.17;1.70;;;17.30;51.90;;;;;;5220753;28;20195;-68
2022/03/12 12:41:22;;;;;;;2.03;1.40;;;17.30;51.90;;;;;;5215007;28;20201;-68
2022/03/12 12:44:14;;;;;;;1.47;1.23;;;17.30;52.00;;;;;;5227358;28;20614;-67
2022/03/12 12:47:08;;;;;;;2.33;1.53;;;17.30;52.10;;;;;;5228137;28;20247;-67
2022/03/12 12:50:01;;;;;;;1.77;1.53;;;17.30;52.10;;;;;;5213071;28;20284;-67
2022/03/12 12:53:14;;;;;;;1.40;1.20;;;17.30;52.10;;;;;;5228139;28;20289;-67
2022/03/12 12:56:25;;;;;;;1.77;1.27;;;17.30;52.20;;;;;;5227349;28;20202;-68
2022/03/12 12:59:18;;;;;;;1.57;1.13;;;17.30;52.20;;;;;;5210398;28;20194;-67
2022/03/12 13:02:11;;;;;;;1.57;1.47;;;17.30;52.30;;;;;;5228118;28;20193;-72
2022/03/12 13:05:08;;;;;;;1.47;1.30;;;17.30;52.40;;;;;;5228396;28;20678;-71
2022/03/12 13:08:00;;;;;;;1.23;1.13;;;17.30;52.30;;;;;;5226424;28;20695;-71
2022/03/12 13:10:54;;;;;;;2.40;1.70;;;17.30;52.30;;;;;;5217637;28;20274;-71
2022/03/12 13:13:56;;;;;;;2.57;1.53;;;17.30;52.20;;;;;;5206684;28;20288;-71
2022/03/12 13:16:51;;;;;;;1.40;1.30;;;17.30;52.10;;;;;;5207528;28;20201;-71
2022/03/12 13:19:44;;;;;;;2.70;1.60;;;17.30;52.10;;;;;;5206598;28;20237;-71
2022/03/12 13:22:43;;;;;;;1.90;1.50;;;17.30;52.10;;;;;;5225875;28;20272;-71
2022/03/12 13:25:47;;;;;;;2.00;1.20;;;17.30;52.10;;;;;;5227402;28;20266;-70
2022/03/12 13:28:43;;;;;;;1.77;1.57;;;17.30;52.20;;;;;;5227432;28;20196;-70
2022/03/12 13:31:35;;;;;;;1.57;1.43;;;17.30;52.20;;;;;;5223679;28;20197;-70
2022/03/12 13:34:28;;;;;;;2.67;1.20;;;17.30;52.80;;;;;;5219326;28;20213;-71
2022/03/12 13:37:20;;;;;;;1.67;1.30;;;17.40;52.30;;;;;;5227461;28;20294;-70
2022/03/12 13:40:14;;;;;;;2.13;1.33;;;17.30;52.40;;;;;;5226074;28;20267;-70
2022/03/12 13:43:07;;;;;;;1.77;1.33;;;17.40;52.40;;;;;;5225821;28;20194;-71
2022/03/12 13:46:00;;;;;;;2.33;1.83;;;17.40;52.30;;;;;;5226257;28;20221;-71
2022/03/12 13:49:09;;;;;;;2.83;1.43;;;17.30;52.20;;;;;;5225503;28;20204;-72
2022/03/12 13:52:02;;;;;;;3.00;1.60;;;17.40;52.10;;;;;;5205824;28;20654;-71
2022/03/12 13:55:01;;;;;;;3.20;1.80;;;17.30;52.00;;;;;;5216742;28;20228;-70
2022/03/12 13:58:00;;;;;;;1.50;1.40;;;17.30;51.90;;;;;;5217742;28;20220;-69
2022/03/12 14:00:55;;;;;;;2.10;1.70;;;17.40;52.00;;;;;;5205717;28;20198;-70
2022/03/12 14:03:48;;;;;;;2.17;1.67;;;17.40;52.10;;;;;;5206408;28;20198;-71
2022/03/12 14:06:40;;;;;;;2.33;1.63;;;17.30;51.90;;;;;;5214899;28;20284;-70
2022/03/12 14:09:35;;;;;;;2.20;1.80;;;17.40;52.00;;;;;;5213744;28;20679;-71
2022/03/12 14:12:28;;;;;;;2.00;1.77;;;17.40;51.90;;;;;;5225168;28;20193;-71
2022/03/12 14:15:25;;;;;;;1.57;1.40;;;17.40;52.00;;;;;;5206523;28;20249;-70
2022/03/12 14:18:26;;;;;;;2.67;1.60;;;17.40;52.00;;;;;;5220012;28;20285;-71
2022/03/12 14:21:22;;;;;;;1.83;1.57;;;17.40;52.00;;;;;;5226813;28;20204;-71
2022/03/12 14:24:17;;;;;;;2.33;1.70;;;17.40;52.10;;;;;;5232413;28;20192;-71
2022/03/12 14:27:12;;;;;;;1.97;1.33;;;17.40;52.10;;;;;;5245873;28;20602;-70
2022/03/12 14:30:06;;;;;;;2.10;1.50;;;17.40;52.10;;;;;;5243681;28;20675;-71
2022/03/12 14:33:00;;;;;;;2.10;1.70;;;17.40;52.20;;;;;;5239784;28;20204;-70
2022/03/12 14:35:52;;;;;;;2.37;1.60;;;17.50;52.30;;;;;;5216791;28;20627;-71
2022/03/12 14:38:44;;;;;;;1.77;1.40;;;17.50;52.30;;;;;;5224610;28;20201;-70
2022/03/12 14:41:37;;;;;;;1.67;1.57;;;17.40;52.40;;;;;;5224786;28;20197;-71
2022/03/12 14:44:31;;;;;;;1.80;1.37;;;17.50;52.50;;;;;;5220161;28;20292;-71
2022/03/12 14:47:24;;;;;;;1.80;1.50;;;17.50;52.60;;;;;;5208265;28;20209;-70
2022/03/12 14:50:19;;;;;;;2.43;1.50;;;17.40;52.50;;;;;;5213712;28;20281;-71
2022/03/12 14:53:11;;;;;;;1.77;1.53;;;17.50;52.60;;;;;;5217109;28;20683;-70
2022/03/12 14:56:04;;;;;;;1.73;1.63;;;17.40;52.50;;;;;;5214024;28;20225;-70
2022/03/12 14:58:56;;;;;;;2.57;1.40;;;17.40;52.50;;;;;;5217256;28;20206;-70
2022/03/12 15:02:02;;;;;;;1.77;1.50;;;17.40;52.60;;;;;;5218332;28;20272;-71
2022/03/12 15:04:59;;;;;;;1.97;1.57;;;17.40;52.60;;;;;;5217922;28;20951;-68
2022/03/12 15:07:53;;;;;;;1.53;1.23;;;17.40;52.60;;;;;;5215188;28;20216;-71